Logo AVAMET Logo AVAMET
Benvolgut visitant, si us plau, ingressa Recuperar contrasenya
AVAMET paisatges
Union Alcoyana

la Vila Joiosa

Dades diàries. Acumulats / Últims 30 dies disponibles

Data Temperatura (°C) Humitat rel. (%) Pressió rel. (hPa) Vent (km/h) Precipitació
Mínima Mitjana Màxima Amplitud
tèrmica
Mínima Mitjana Màxima Mínima Mitjana Màxima Predom. Mitjana Ràfega
màxima
Total
(mm)
Índex-n
Mínima Mitjana Màxima Mínima Mitjana Màxima n
0 a 1
P0 max
mm 5'
Dades mensuals acumulades fins l'últim dia disponible
02/2024 7,2 10,8 16,0 14,4 15,6 18,3 23,7 16,5 26 67 91 991 1.021 1.036   5,1 59,5 5,6
Dades anuals acumulades fins l'últim dia disponible
2024 5,7 10,6 17,4 14,1 13,5 17,9 23,7 18,0 26 66 91 991 1.022 1.038   5,3 83,7 13,4
Últims 30 dies disponibles
23-02-2024 12,9     16,1     19,3 6,4 28 40 64 1.007 1.010 1.012 O 13,2 51,5 0,0
22-02-2024 12,6     17,2     21,6 9,0 38 66 86 1.008 1.014 1.021 OSO 5,6 30,6 0,0
21-02-2024 8,5     12,8     16,6 8,1 69 79 86 1.021 1.026 1.029 SW 4,8 22,5 0,0
20-02-2024 10,1     13,8     17,9 7,8 61 77 88 1.026 1.028 1.031 NW 3,2 16,1 0,0
19-02-2024 10,1     13,3     17,3 7,2 73 80 88 1.029 1.030 1.033 NW 2,4 12,9 0,0
18-02-2024 9,9     13,6     17,7 7,8 59 72 82 1.032 1.034 1.035 NW 3,4 14,5 0,0
17-02-2024 10,7     14,3     18,4 7,7 50 68 80 1.025 1.028 1.033 NW 3,5 17,7 0,0
16-02-2024 12,9     15,8     18,3 5,4 59 76 88 1.016 1.019 1.025 SW 5,0 27,4 0,0
15-02-2024 12,3     15,2     19,0 6,7 58 69 84 1.016 1.019 1.022 NW 4,0 20,9 0,2
14-02-2024 11,9     14,9     18,2 6,3 70 82 89 1.022 1.024 1.026 NW 2,3 12,9 0,0
13-02-2024 14,6     18,4     20,5 5,9 48 61 79 1.018 1.021 1.024 E 6,1 40,2 0,0
12-02-2024 10,0     17,3     23,7 13,7 37 58 85 1.009 1.012 1.018 W 8,0 53,1 0,0
11-02-2024 9,9     13,2     15,6 5,7 37 48 70 1.005 1.010 1.012 SW 6,0 51,5 0,0
10-02-2024 11,4     15,1     18,7 7,3 33 55 91 991 996 1.005 W 13,0 59,5 0,0
09-02-2024 12,1     14,1     16,3 4,2 61 81 91 991 998 1.006 OSO 3,5 22,5 5,4 0,32 0,40
08-02-2024 13,2     15,9     18,1 4,9 51 70 87 1.006 1.013 1.019 SW 6,1 38,6 0,0
07-02-2024 16,0     19,3     23,1 7,1 26 43 56 1.019 1.021 1.023 WSW 7,1 32,2 0,0
06-02-2024 10,0     13,0     17,8 7,8 46 66 81 1.022 1.024 1.027 SO 3,2 22,5 0,0
05-02-2024 7,7     11,6     16,4 8,7 49 71 87 1.026 1.029 1.031 NW 4,2 19,3 0,0
04-02-2024 7,2     11,4     16,2 9,0 54 73 86 1.030 1.031 1.033 NW 3,1 12,9 0,0
03-02-2024 9,3     12,3     16,9 7,6 62 71 80 1.032 1.033 1.034 NW 3,2 17,7 0,0
02-02-2024 7,5     11,2     16,4 8,9 61 73 84 1.031 1.032 1.034 NW 3,9 32,2 0,0
01-02-2024 8,3     12,3     15,9 7,6 64 73 81 1.032 1.034 1.036 NW 3,4 16,1 0,0
31-01-2024 11,3     13,6     15,4 4,1 62 70 78 1.034 1.034 1.036 SE 3,8 20,9 0,0
30-01-2024 12,6     14,2     15,9 3,3 62 71 77 1.031 1.032 1.034 ENE 6,6 32,2 0,0
29-01-2024 10,0     13,4     16,9 6,9 64 69 75 1.029 1.030 1.032 NW 6,3 30,6 0,0
28-01-2024 10,4     14,7     19,9 9,5 49 62 82 1.028 1.029 1.030 SSO 4,9 25,7 0,0
27-01-2024 10,3     14,2     18,3 8,0 56 66 75 1.029 1.030 1.031 NW 3,4 22,5 0,0
26-01-2024 11,3     14,8     19,3 8,0 53 68 82 1.029 1.030 1.032 SW 2,1 11,3 0,0
25-01-2024 10,2     15,7     20,4 10,2 46 59 76 1.030 1.032 1.035 O 3,7 22,5 0,0
Últims 13 mesos disponibles
01/2024 5,7 10,5 17,4 13,8 13,5 17,6 22,5 16,8 36 64 81 1.006 1.022 1.036 NW 5,4 83,7 7,8
12/2023 6,2 9,9 14,3 13,4 14,8 17,5 22,3 16,1 38 63 83 1.002 1.022 1.036 NW 4,4 57,9 2,4
11/2023 8,1 13,5 17,7 17,1 16,7 21,3 27,9 19,8 44 62 84 1.005 1.016 1.026 NW 5,3 91,7 0,0
10/2023 12,8 18,0 21,2 21,5 21,6 25,1 29,3 16,5 44 68 78 999 1.016 1.026 NW 5,2 59,5 0,8
09/2023 18,2 21,0 26,3 24,4 25,6 27,8 32,6 14,4 51 73 81 1.009 1.016 1.024 E 5,8 67,6 41,4
08/2023 20,7 23,6 25,4 27,2 27,8 30,4 32,8 12,1 41 70 80 1.009 1.015 1.019 E 5,6 45,1 12,0
07/2023 22,2 24,4 27,1 27,6 27,5 30,8 33,8 11,6 63 76 84 1.009 1.015 1.019 E 5,7 45,1 3,4
06/2023 16,2 20,4 24,0 23,8 23,1 27,1 30,3 14,1 52 72 82 1.009 1.014 1.022 E 5,0 45,1 5,8
05/2023 12,4 15,8 19,5 19,1 20,2 22,5 26,1 13,7 48 70 86 1.011 1.016 1.021 E 6,0 54,7 98,6
04/2023 9,6 13,2 20,6 17,3 17,8 21,4 31,9 22,3 45 65 83 1.009 1.016 1.021 ENE 5,0 56,3 1,8
03/2023 3,9 11,5 18,2 15,7 11,8 20,4 30,5 26,6 40 61 83 1.010 1.018 1.025 NW 5,1 54,7 2,8
02/2023 2,5 7,8 10,2 11,2 12,1 14,9 18,1 15,6 32 63 82 1.004 1.024 1.036 WNW 5,9 53,1 0,4
01/2023 3,8 8,2 14,1 11,9 11,0 16,0 22,9 19,1 36 60 80 1.002 1.022 1.033 WNW 5,6 77,2 3,4
Tots els anys disponibles
Temperatura (°C)
Humitat relativa (%)
Velocitat del vent i ràfega màxima (km/h)
Direcció del vent (°)
Pressió (hPa)
Precipitació (mm)
Nota sobre les dades: s'avisa a l'usuari de la provisionalitat i no oficialitat d'aquestes dades
Logo AVAMET blanc
Web allotjada a Sollutia
Llicència de Creative CommonsLa web d'AVAMET i els seus continguts estan subjectes a una llicència de
Reconeixement - No Comercial - Compartir igual
Avís legal - Política de privacitat - Política de cookies - Canviar configuració privacitat
NOVES ESTACIONS: Suera - Res. Espadà (Soci), Catarroja - Col·legi Larrodé (Soci), València - Patraix (Soci), Ontinyent - Torre de Torús (Soci), Requena - El Rebollar (Casa Ejarque) (Soci), Elx - la Foia (Soci), Onda - el Salvador (Ajuntament/Soci), Paiporta (Ajuntament/Soci), Castalla - Racó de l'Espartosa (Soci), Vilafranca - Pla de Mossorro (Soci), Rossell Roca de l'en Piquer (Soci), Villena - Bulilla (Soci), Riba-roja de Túria (Soci), Villanueva de Viver (45ª estació pròpia d'AVAMET), Vila-real - Col·legi Virgen del Carmen (Soci), Xert - Enroig (Ajuntament/Soci), Gavarda - la Travessa (Ajuntament/Soci), Otos - Bar l'Oratge (Soci), Puebla de Arenoso (Ajuntament/Soci), Confrides - Cim d'Aitana (44ª estació pròpia d'AVAMET) - - -